createdAt,value
2023-01-20T00:01:05.302Z,6.42
2023-01-20T00:03:31.891Z,6.42
2023-01-20T00:05:59.120Z,6.41
2023-01-20T00:08:25.687Z,6.37
2023-01-20T00:10:52.205Z,6.51
2023-01-20T00:13:18.715Z,6.50
2023-01-20T00:15:45.313Z,6.51
2023-01-20T00:18:12.017Z,6.39
2023-01-20T00:20:38.542Z,6.46
2023-01-20T00:23:05.255Z,6.49
2023-01-20T00:25:32.045Z,6.52
2023-01-20T00:27:58.585Z,6.55
2023-01-20T00:30:25.263Z,6.62
2023-01-20T00:32:52.301Z,6.58
2023-01-20T00:35:18.844Z,6.60
2023-01-20T00:37:45.466Z,6.60
2023-01-20T00:40:12.175Z,6.63
2023-01-20T00:42:38.694Z,6.57
2023-01-20T00:45:05.663Z,6.56
2023-01-20T00:47:32.235Z,6.63
2023-01-20T00:49:58.743Z,6.67
2023-01-20T00:52:25.295Z,6.65
2023-01-20T00:54:51.833Z,6.70
2023-01-20T00:57:18.373Z,6.66
2023-01-20T00:59:44.874Z,6.62
2023-01-20T01:02:11.495Z,6.60
2023-01-20T01:04:38.069Z,6.63
2023-01-20T01:07:04.690Z,6.65
2023-01-20T01:09:32.333Z,6.65
2023-01-20T01:11:58.833Z,6.67
2023-01-20T01:14:25.441Z,6.67
2023-01-20T01:16:51.934Z,6.63
2023-01-20T01:19:19.230Z,6.66
2023-01-20T01:21:45.798Z,6.65
2023-01-20T01:24:12.346Z,6.58
2023-01-20T01:26:38.930Z,6.64
2023-01-20T01:29:05.516Z,6.59
2023-01-20T01:31:32.061Z,6.64
2023-01-20T01:33:58.572Z,6.55
2023-01-20T01:36:25.109Z,6.61
2023-01-20T01:38:57.470Z,6.60
2023-01-20T01:41:26.294Z,6.56
2023-01-20T01:44:11.055Z,6.44
2023-01-20T01:46:38.445Z,6.51
2023-01-20T01:49:13.980Z,6.55
2023-01-20T01:51:55.147Z,6.50
2023-01-20T01:54:24.782Z,6.34
2023-01-20T01:56:52.451Z,6.40
2023-01-20T01:59:20.109Z,6.47
2023-01-20T02:01:52.804Z,6.50
2023-01-20T02:04:24.970Z,6.43
2023-01-20T02:07:08.007Z,6.44
2023-01-20T02:09:35.875Z,6.49
2023-01-20T02:12:06.400Z,6.46
2023-01-20T02:14:55.599Z,6.39
2023-01-20T02:17:22.074Z,6.44
2023-01-20T02:20:25.299Z,6.36
2023-01-20T02:23:44.552Z,6.36
2023-01-20T02:26:41.778Z,6.37
2023-01-20T02:29:26.913Z,6.37
2023-01-20T02:32:12.690Z,6.39
2023-01-20T02:34:58.701Z,6.42
2023-01-20T02:37:28.430Z,6.39
2023-01-20T02:40:04.953Z,6.38
2023-01-20T02:42:41.017Z,6.47
2023-01-20T02:45:36.512Z,6.43
2023-01-20T02:48:10.158Z,6.41
2023-01-20T02:50:48.534Z,6.44
2023-01-20T02:53:17.666Z,6.43
2023-01-20T02:55:49.458Z,6.44
2023-01-20T02:58:18.853Z,6.45
2023-01-20T03:01:22.552Z,6.45
2023-01-20T03:03:52.402Z,6.40
2023-01-20T03:06:24.142Z,6.47
2023-01-20T03:08:53.183Z,6.56
2023-01-20T03:11:20.413Z,6.54
2023-01-20T03:14:11.031Z,6.61
2023-01-20T03:16:38.757Z,6.61
2023-01-20T03:19:05.378Z,6.54
2023-01-20T03:21:33.612Z,6.36
2023-01-20T03:24:03.174Z,6.25
2023-01-20T03:26:30.826Z,5.92
2023-01-20T03:28:57.981Z,5.79
2023-01-20T03:31:36.424Z,5.79
2023-01-20T03:34:10.879Z,5.81
2023-01-20T03:36:38.142Z,5.82
2023-01-20T03:39:05.407Z,5.71
2023-01-20T03:41:47.104Z,5.86
2023-01-20T03:44:28.902Z,6.00
2023-01-20T03:46:55.414Z,6.03
2023-01-20T03:49:42.907Z,5.98
2023-01-20T03:52:22.517Z,6.16
2023-01-20T03:54:57.193Z,6.03
2023-01-20T03:57:29.629Z,6.08
2023-01-20T03:59:56.994Z,6.07
2023-01-20T04:02:26.080Z,6.06
2023-01-20T04:04:53.940Z,6.07
2023-01-20T04:07:26.450Z,6.09
2023-01-20T04:09:58.204Z,6.11
2023-01-20T04:12:24.829Z,6.05
2023-01-20T04:14:51.395Z,5.96
2023-01-20T04:17:18.059Z,6.06
2023-01-20T04:19:44.747Z,6.04
2023-01-20T04:22:35.756Z,6.02
2023-01-20T04:25:15.281Z,5.85
2023-01-20T04:27:42.019Z,5.49
2023-01-20T04:30:09.601Z,5.56
2023-01-20T04:32:36.153Z,5.69
2023-01-20T04:35:02.745Z,5.84
2023-01-20T04:37:29.269Z,5.92
2023-01-20T04:39:55.801Z,5.79
2023-01-20T04:42:22.371Z,5.91
2023-01-20T04:44:48.872Z,5.75
2023-01-20T04:47:15.406Z,5.16
2023-01-20T04:49:41.913Z,5.33
2023-01-20T04:52:08.429Z,5.49
2023-01-20T04:54:34.945Z,5.77
2023-01-20T04:57:01.470Z,5.78
2023-01-20T04:59:27.967Z,5.86
2023-01-20T05:01:54.613Z,5.76
2023-01-20T05:04:21.267Z,5.93
2023-01-20T05:06:47.807Z,6.04
2023-01-20T05:09:16.235Z,6.06
2023-01-20T05:11:43.893Z,6.00
2023-01-20T05:14:11.701Z,6.04
2023-01-20T05:16:38.258Z,6.06
2023-01-20T05:19:04.781Z,6.06
2023-01-20T05:21:31.454Z,6.00
2023-01-20T05:23:58.009Z,5.88
2023-01-20T05:26:25.753Z,5.97
2023-01-20T05:28:53.128Z,5.72
2023-01-20T05:31:19.823Z,5.70
2023-01-20T05:33:46.446Z,5.84
2023-01-20T05:36:12.980Z,5.83
2023-01-20T05:38:39.586Z,5.95
2023-01-20T05:41:08.385Z,5.85
2023-01-20T05:43:35.793Z,5.92
2023-01-20T05:46:02.934Z,5.93
2023-01-20T05:48:29.487Z,5.84
2023-01-20T05:50:56.043Z,5.82
2023-01-20T05:53:22.875Z,5.83
2023-01-20T05:55:49.434Z,5.85
2023-01-20T05:58:15.955Z,5.84
2023-01-20T06:00:42.515Z,5.95
2023-01-20T06:03:09.065Z,5.89
2023-01-20T06:05:35.633Z,5.98
2023-01-20T06:08:02.153Z,6.00
2023-01-20T06:10:28.678Z,5.92
2023-01-20T06:12:55.858Z,5.83
2023-01-20T06:15:23.950Z,5.69
2023-01-20T06:17:51.189Z,5.61
2023-01-20T06:20:18.722Z,5.62
2023-01-20T06:22:45.255Z,5.69
2023-01-20T06:25:11.813Z,5.56
2023-01-20T06:27:38.398Z,5.47
2023-01-20T06:30:07.129Z,5.38
2023-01-20T06:32:33.644Z,5.24
2023-01-20T06:35:00.178Z,5.15
2023-01-20T06:37:26.730Z,5.25
2023-01-20T06:39:53.247Z,5.30
2023-01-20T06:42:19.771Z,5.39
2023-01-20T06:44:46.361Z,5.38
2023-01-20T06:47:12.924Z,5.39
2023-01-20T06:49:42.111Z,5.56
2023-01-20T06:52:09.637Z,5.42
2023-01-20T06:54:36.154Z,5.54
2023-01-20T06:57:02.719Z,5.41
2023-01-20T06:59:29.281Z,5.38
2023-01-20T07:01:55.870Z,5.46
2023-01-20T07:04:22.629Z,5.49
2023-01-20T07:06:49.377Z,5.55
2023-01-20T07:09:15.950Z,5.41
2023-01-20T07:11:42.530Z,5.46
2023-01-20T07:14:09.963Z,5.53
2023-01-20T07:16:36.984Z,5.58
2023-01-20T07:19:03.684Z,5.57
2023-01-20T07:21:30.520Z,5.64
2023-01-20T07:24:00.254Z,5.65
2023-01-20T07:26:26.874Z,5.74
2023-01-20T07:28:53.592Z,5.64
2023-01-20T07:31:22.824Z,5.68
2023-01-20T07:33:50.026Z,5.76
2023-01-20T07:36:17.397Z,5.77
2023-01-20T07:38:48.386Z,5.88
2023-01-20T07:41:19.541Z,5.89
2023-01-20T07:43:47.908Z,5.91
2023-01-20T07:46:15.162Z,5.85
2023-01-20T07:48:42.027Z,5.87
2023-01-20T07:51:11.137Z,5.71
2023-01-20T07:53:46.442Z,5.79
2023-01-20T07:56:15.880Z,5.58
2023-01-20T07:58:45.105Z,5.45
2023-01-20T08:01:14.376Z,5.66
2023-01-20T08:03:41.226Z,5.34
2023-01-20T08:06:10.332Z,5.44
2023-01-20T08:08:37.297Z,5.35
2023-01-20T08:11:05.949Z,5.58
2023-01-20T08:13:33.029Z,5.67
2023-01-20T08:16:01.651Z,5.45
2023-01-20T08:18:28.213Z,5.47
2023-01-20T08:20:54.766Z,5.58
2023-01-20T08:23:21.351Z,5.93
2023-01-20T08:25:47.896Z,5.88
2023-01-20T08:28:14.443Z,5.97
2023-01-20T08:30:41.063Z,6.14
2023-01-20T08:33:07.673Z,6.30
2023-01-20T08:35:36.470Z,6.33
2023-01-20T08:38:03.471Z,6.37
2023-01-20T08:40:30.002Z,6.03
2023-01-20T08:42:56.540Z,5.89
2023-01-20T08:45:23.804Z,6.00
2023-01-20T08:47:50.469Z,5.94
2023-01-20T08:50:17.767Z,5.99
2023-01-20T08:52:44.699Z,6.06
2023-01-20T08:55:11.796Z,6.09
2023-01-20T08:57:38.373Z,6.36
2023-01-20T09:00:06.073Z,6.59
2023-01-20T09:02:32.683Z,6.52
2023-01-20T09:04:59.578Z,6.60
2023-01-20T09:07:26.961Z,6.54
2023-01-20T09:09:53.494Z,6.62
2023-01-20T09:12:20.669Z,6.60
2023-01-20T09:14:47.272Z,6.82
2023-01-20T09:17:14.686Z,6.66
2023-01-20T09:19:41.221Z,7.00
2023-01-20T09:22:08.032Z,7.00
2023-01-20T09:24:34.551Z,6.87
2023-01-20T09:27:01.106Z,6.79
2023-01-20T09:29:27.721Z,6.84
2023-01-20T09:31:58.971Z,6.96
2023-01-20T09:34:29.242Z,6.75
2023-01-20T09:37:21.268Z,6.97
2023-01-20T09:40:07.272Z,7.18
2023-01-20T09:43:17.798Z,7.18
2023-01-20T09:46:01.200Z,7.30
2023-01-20T09:48:55.678Z,7.23
2023-01-20T09:51:51.077Z,7.64
2023-01-20T09:54:25.430Z,7.70
2023-01-20T09:56:56.346Z,7.73
2023-01-20T09:59:41.093Z,7.53
2023-01-20T10:02:17.480Z,7.63
2023-01-20T10:04:51.382Z,7.82
2023-01-20T10:07:29.803Z,7.57
2023-01-20T10:10:17.964Z,7.55
2023-01-20T10:12:52.484Z,7.10
2023-01-20T10:15:46.231Z,7.37
2023-01-20T10:18:23.732Z,7.48
2023-01-20T10:21:08.257Z,7.51
2023-01-20T10:23:46.449Z,7.34
2023-01-20T10:26:32.413Z,7.05
2023-01-20T10:29:03.231Z,7.33
2023-01-20T10:31:40.656Z,7.60
2023-01-20T10:34:12.640Z,7.02
2023-01-20T10:36:44.038Z,7.29
2023-01-20T10:39:22.082Z,7.19
2023-01-20T10:42:01.800Z,7.09
2023-01-20T10:44:28.542Z,7.32
2023-01-20T10:47:13.731Z,7.06
2023-01-20T10:49:56.349Z,7.18
2023-01-20T10:52:57.171Z,7.39
2023-01-20T10:55:32.705Z,7.04
2023-01-20T10:58:09.133Z,7.36
2023-01-20T11:00:35.779Z,7.13
2023-01-20T11:03:06.012Z,7.28
2023-01-20T11:05:41.088Z,7.37
2023-01-20T11:08:20.305Z,7.34
2023-01-20T11:10:53.887Z,7.52
2023-01-20T11:13:20.488Z,7.64
2023-01-20T11:15:50.883Z,7.06
2023-01-20T11:18:17.446Z,7.58
2023-01-20T11:20:50.460Z,7.89
2023-01-20T11:23:38.229Z,8.03
2023-01-20T11:26:20.537Z,8.10
2023-01-20T11:29:11.712Z,7.86
2023-01-20T11:31:47.258Z,8.21
2023-01-20T11:34:30.851Z,8.32
2023-01-20T11:37:06.455Z,7.84
2023-01-20T11:39:43.501Z,7.90
2023-01-20T11:42:20.032Z,8.16
2023-01-20T11:44:55.238Z,6.94
2023-01-20T11:47:24.618Z,6.76
2023-01-20T11:50:09.278Z,6.93
2023-01-20T11:52:43.826Z,6.52
2023-01-20T11:55:15.384Z,7.30
2023-01-20T11:57:50.509Z,7.52
2023-01-20T12:00:19.956Z,7.19
2023-01-20T12:03:02.531Z,7.70
2023-01-20T12:05:32.796Z,7.87
2023-01-20T12:08:00.603Z,8.31
2023-01-20T12:10:34.789Z,8.26
2023-01-20T12:13:20.525Z,8.37
2023-01-20T12:15:54.582Z,8.15
2023-01-20T12:18:33.323Z,7.10
2023-01-20T12:21:18.284Z,7.07
2023-01-20T12:23:50.875Z,7.69
2023-01-20T12:26:20.117Z,7.74
2023-01-20T12:28:51.475Z,7.39
2023-01-20T12:31:20.277Z,7.17
2023-01-20T12:34:14.638Z,6.80
2023-01-20T12:36:47.070Z,6.56
2023-01-20T12:39:52.448Z,7.01
2023-01-20T12:42:38.852Z,6.73
2023-01-20T12:45:21.153Z,6.92
2023-01-20T12:48:11.109Z,6.89
2023-01-20T12:50:51.096Z,6.86
2023-01-20T12:53:23.760Z,6.71
2023-01-20T12:56:28.241Z,7.06
2023-01-20T12:59:15.143Z,6.73
2023-01-20T13:01:47.197Z,6.85
2023-01-20T13:04:35.604Z,6.62
2023-01-20T13:07:22.647Z,6.68
2023-01-20T13:09:49.101Z,6.82
2023-01-20T13:12:35.835Z,6.71
2023-01-20T13:15:22.568Z,7.02
2023-01-20T13:18:13.897Z,7.06
2023-01-20T13:20:45.420Z,7.20
2023-01-20T13:23:18.522Z,6.79
2023-01-20T13:25:46.747Z,6.24
2023-01-20T13:28:22.457Z,6.22
2023-01-20T13:30:53.910Z,6.47
2023-01-20T13:33:34.267Z,6.57
2023-01-20T13:36:21.495Z,6.25
2023-01-20T13:38:50.966Z,6.39
2023-01-20T13:41:49.935Z,6.75
2023-01-20T13:44:35.818Z,6.62
2023-01-20T13:47:03.850Z,6.78
2023-01-20T13:49:51.223Z,6.42
2023-01-20T13:53:15.149Z,6.80
2023-01-20T13:55:41.681Z,6.65
2023-01-20T13:58:19.600Z,6.50
2023-01-20T14:00:49.636Z,6.54
2023-01-20T14:03:19.130Z,6.85
2023-01-20T14:05:54.111Z,6.53
2023-01-20T14:08:23.021Z,6.67
2023-01-20T14:10:49.678Z,6.69
2023-01-20T14:13:22.041Z,6.50
2023-01-20T14:15:54.257Z,6.32
2023-01-20T14:18:23.260Z,5.83
2023-01-20T14:21:19.118Z,6.23
2023-01-20T14:23:48.744Z,6.27
2023-01-20T14:26:21.162Z,6.26
2023-01-20T14:28:53.968Z,6.23
2023-01-20T14:31:33.925Z,6.00
2023-01-20T14:34:19.262Z,6.19
2023-01-20T14:36:46.509Z,6.58
2023-01-20T14:39:23.776Z,6.27
2023-01-20T14:41:51.293Z,6.47
2023-01-20T14:44:23.464Z,6.51
2023-01-20T14:46:52.822Z,6.47
2023-01-20T14:49:22.100Z,6.51
2023-01-20T14:51:50.136Z,6.78
2023-01-20T14:54:41.459Z,6.96
2023-01-20T14:57:31.051Z,6.91
2023-01-20T15:00:19.832Z,6.68
2023-01-20T15:03:14.099Z,6.71
2023-01-20T15:06:05.968Z,6.90
2023-01-20T15:08:32.455Z,6.50
2023-01-20T15:11:14.805Z,6.72
2023-01-20T15:13:43.667Z,6.66
2023-01-20T15:16:17.517Z,6.49
2023-01-20T15:19:04.922Z,6.64
2023-01-20T15:21:31.453Z,6.64
2023-01-20T15:24:12.218Z,6.85
2023-01-20T15:26:38.930Z,6.65
2023-01-20T15:29:25.149Z,6.76
2023-01-20T15:31:53.093Z,6.72
2023-01-20T15:34:21.157Z,6.59
2023-01-20T15:36:49.180Z,6.45
2023-01-20T15:39:22.553Z,6.22
2023-01-20T15:41:53.972Z,6.55
2023-01-20T15:44:25.835Z,6.59
2023-01-20T15:46:57.895Z,6.53
2023-01-20T15:49:25.873Z,6.06
2023-01-20T15:51:53.043Z,5.97
2023-01-20T15:54:19.804Z,6.34
2023-01-20T15:56:46.776Z,6.52
2023-01-20T15:59:19.788Z,6.37
2023-01-20T16:01:48.234Z,6.31
2023-01-20T16:04:15.548Z,6.19
2023-01-20T16:06:42.643Z,6.51
2023-01-20T16:09:16.936Z,6.35
2023-01-20T16:11:43.668Z,6.48
2023-01-20T16:14:10.331Z,6.53
2023-01-20T16:16:37.193Z,6.54
2023-01-20T16:19:08.398Z,6.46
2023-01-20T16:21:36.809Z,6.37
2023-01-20T16:24:04.014Z,6.34
2023-01-20T16:26:35.481Z,6.42
2023-01-20T16:29:02.340Z,6.42
2023-01-20T16:31:29.135Z,6.60
2023-01-20T16:33:56.479Z,6.44
2023-01-20T16:36:25.058Z,6.63
2023-01-20T16:38:52.205Z,6.43
2023-01-20T16:41:27.630Z,6.44
2023-01-20T16:43:55.683Z,6.61
2023-01-20T16:46:24.646Z,6.68
2023-01-20T16:48:51.816Z,6.55
2023-01-20T16:51:21.585Z,6.64
2023-01-20T16:53:49.358Z,6.58
2023-01-20T16:56:19.732Z,6.54
2023-01-20T16:58:51.755Z,6.57
2023-01-20T17:01:24.673Z,6.68
2023-01-20T17:03:53.994Z,6.61
2023-01-20T17:06:23.922Z,6.58
2023-01-20T17:08:56.061Z,6.47
2023-01-20T17:11:26.875Z,6.02
2023-01-20T17:13:56.111Z,6.50
2023-01-20T17:16:23.859Z,6.47
2023-01-20T17:18:51.696Z,6.43
2023-01-20T17:21:20.542Z,6.15
2023-01-20T17:23:55.825Z,6.47
2023-01-20T17:26:23.560Z,6.53
2023-01-20T17:28:55.566Z,6.56
2023-01-20T17:31:23.273Z,6.61
2023-01-20T17:33:55.687Z,6.62
2023-01-20T17:36:25.950Z,6.66
2023-01-20T17:38:55.533Z,6.59
2023-01-20T17:41:22.858Z,6.50
2023-01-20T17:43:53.143Z,6.61
2023-01-20T17:46:25.907Z,6.53
2023-01-20T17:48:52.419Z,6.61
2023-01-20T17:51:21.942Z,6.58
2023-01-20T17:53:48.956Z,6.74
2023-01-20T17:56:17.159Z,6.71
2023-01-20T17:58:46.270Z,6.72
2023-01-20T18:01:21.857Z,6.61
2023-01-20T18:03:50.217Z,6.52
2023-01-20T18:06:19.237Z,6.50
2023-01-20T18:08:54.511Z,6.56
2023-01-20T18:11:23.522Z,6.60
2023-01-20T18:13:52.136Z,6.56
2023-01-20T18:16:20.178Z,6.58
2023-01-20T18:18:47.906Z,6.59
2023-01-20T18:21:19.833Z,6.60
2023-01-20T18:23:47.959Z,6.49
2023-01-20T18:26:16.716Z,6.65
2023-01-20T18:28:43.603Z,6.60
2023-01-20T18:31:16.433Z,6.71
2023-01-20T18:33:51.157Z,6.64
2023-01-20T18:36:24.538Z,6.83
2023-01-20T18:38:56.135Z,6.86
2023-01-20T18:41:23.575Z,6.79
2023-01-20T18:43:50.214Z,6.76
2023-01-20T18:46:17.509Z,6.69
2023-01-20T18:48:45.931Z,6.68
2023-01-20T18:51:17.527Z,6.70
2023-01-20T18:53:45.917Z,6.72
2023-01-20T18:56:14.876Z,6.77
2023-01-20T18:58:45.687Z,6.65
2023-01-20T19:01:14.403Z,6.64
2023-01-20T19:03:41.132Z,6.60
2023-01-20T19:06:10.797Z,6.75
2023-01-20T19:08:38.811Z,6.67
2023-01-20T19:11:12.791Z,6.66
2023-01-20T19:13:40.816Z,6.49
2023-01-20T19:16:10.356Z,6.41
2023-01-20T19:18:37.310Z,6.42
2023-01-20T19:21:08.204Z,6.42
2023-01-20T19:23:35.128Z,6.49
2023-01-20T19:26:03.840Z,6.55
2023-01-20T19:28:31.971Z,6.58
2023-01-20T19:31:13.964Z,6.57
2023-01-20T19:33:40.794Z,6.63
2023-01-20T19:36:10.891Z,6.69
2023-01-20T19:38:37.912Z,6.55
2023-01-20T19:41:27.631Z,6.50
2023-01-20T19:43:57.090Z,6.38
2023-01-20T19:46:26.697Z,6.46
2023-01-20T19:48:55.960Z,6.42
2023-01-20T19:51:23.269Z,6.37
2023-01-20T19:53:55.493Z,6.36
2023-01-20T19:56:22.054Z,6.12
2023-01-20T19:58:48.904Z,6.29
2023-01-20T20:01:20.984Z,6.20
2023-01-20T20:03:48.687Z,6.43
2023-01-20T20:06:33.051Z,6.38
2023-01-20T20:09:10.119Z,6.21
2023-01-20T20:11:36.999Z,6.17
2023-01-20T20:14:06.174Z,6.39
2023-01-20T20:16:35.420Z,6.40
2023-01-20T20:19:02.613Z,6.36
2023-01-20T20:21:29.212Z,6.21
2023-01-20T20:23:57.995Z,6.20
2023-01-20T20:26:27.648Z,6.33
2023-01-20T20:28:54.317Z,6.24
2023-01-20T20:31:22.387Z,6.35
2023-01-20T20:33:49.041Z,6.45
2023-01-20T20:36:15.594Z,6.24
2023-01-20T20:38:42.171Z,6.28
2023-01-20T20:41:09.504Z,6.26
2023-01-20T20:43:37.354Z,6.15
2023-01-20T20:46:06.546Z,6.21
2023-01-20T20:48:36.718Z,5.96
2023-01-20T20:51:07.381Z,6.02
2023-01-20T20:53:34.172Z,6.17
2023-01-20T20:56:04.037Z,6.23
2023-01-20T20:58:31.714Z,6.22
2023-01-20T21:01:02.538Z,6.21
2023-01-20T21:03:29.965Z,6.29
2023-01-20T21:05:56.554Z,6.33
2023-01-20T21:08:25.153Z,6.35
2023-01-20T21:10:52.142Z,6.36
2023-01-20T21:13:18.930Z,6.41
2023-01-20T21:15:54.810Z,6.36
2023-01-20T21:18:21.394Z,6.47
2023-01-20T21:20:57.263Z,6.55
2023-01-20T21:23:24.444Z,6.30
2023-01-20T21:25:51.166Z,6.40
2023-01-20T21:28:18.161Z,6.25
2023-01-20T21:30:44.798Z,6.24
2023-01-20T21:33:17.569Z,6.34
2023-01-20T21:35:45.400Z,6.37
2023-01-20T21:38:12.685Z,6.31
2023-01-20T21:40:39.780Z,6.40
2023-01-20T21:43:25.499Z,6.46
2023-01-20T21:45:56.170Z,6.37
2023-01-20T21:48:42.028Z,6.43
2023-01-20T21:51:29.163Z,6.42
2023-01-20T21:53:55.692Z,6.51
2023-01-20T21:56:22.225Z,6.42
2023-01-20T21:58:48.744Z,6.38
2023-01-20T22:01:15.384Z,6.42
2023-01-20T22:03:41.933Z,6.41
2023-01-20T22:06:09.306Z,6.41
2023-01-20T22:08:35.820Z,6.43
2023-01-20T22:11:02.390Z,6.34
2023-01-20T22:13:29.251Z,6.30
2023-01-20T22:15:55.758Z,6.33
2023-01-20T22:18:22.276Z,6.20
2023-01-20T22:20:48.815Z,6.11
2023-01-20T22:23:15.333Z,6.19
2023-01-20T22:25:42.022Z,6.18
2023-01-20T22:28:08.851Z,6.33
2023-01-20T22:30:35.373Z,6.33
2023-01-20T22:33:01.924Z,6.42
2023-01-20T22:35:29.991Z,6.33
2023-01-20T22:37:56.497Z,6.22
2023-01-20T22:40:22.998Z,6.31
2023-01-20T22:42:49.690Z,6.29
2023-01-20T22:45:16.435Z,6.15
2023-01-20T22:47:43.248Z,6.21
2023-01-20T22:50:10.644Z,6.24
2023-01-20T22:52:37.236Z,6.33
2023-01-20T22:55:04.348Z,6.29
2023-01-20T22:57:30.919Z,6.27
2023-01-20T22:59:57.437Z,6.27
2023-01-20T23:02:24.021Z,6.39
2023-01-20T23:04:52.331Z,6.39
2023-01-20T23:07:18.995Z,6.35
2023-01-20T23:09:46.443Z,6.25
2023-01-20T23:12:13.032Z,6.34
2023-01-20T23:14:58.108Z,6.41
2023-01-20T23:17:31.637Z,6.37
2023-01-20T23:19:58.203Z,6.36
2023-01-20T23:22:24.757Z,6.26
2023-01-20T23:24:51.310Z,6.33
2023-01-20T23:27:17.885Z,6.13
2023-01-20T23:29:44.498Z,6.26
2023-01-20T23:32:11.016Z,6.16
2023-01-20T23:34:37.671Z,6.26
2023-01-20T23:37:04.213Z,6.01
2023-01-20T23:39:30.747Z,6.28
2023-01-20T23:41:57.815Z,6.15
2023-01-20T23:44:24.312Z,6.16
2023-01-20T23:46:50.813Z,5.98
2023-01-20T23:49:17.371Z,6.15
2023-01-20T23:51:43.862Z,6.27
2023-01-20T23:54:13.229Z,6.22
2023-01-20T23:56:39.814Z,6.29
2023-01-20T23:59:06.390Z,6.02
